GLD1705 SBPJ-SBSN
Flight info
| Callsign | GLD1705 |
|---|---|
| Flight time | 2h 11m |
| Altitude | 28000 |
| Route | OPNUP DCT ITALA DCT RONUB UL452 TORAX |
| Aircraft | B350/L-SBGRW/S |
Departure
| Time | 2026-04-25 22:56 |
|---|---|
| Airport | Brigadeiro Lysias Rodrigues Airport (SBPJ) |
Arrival
| Time | 2026-04-26 01:07 |
|---|---|
| Airport | Santarém - Maestro Wilson Fonseca International Airport (SBSN) |
| Time | Latitude | Longitude | Altitude | Speed | Heading |
|---|---|---|---|---|---|
| 2026-04-25 22:39 | -10.29241 | -48.36082 | 749 ft | 0 kts | 212° |
| 2026-04-25 22:51 | -10.29255 | -48.36090 | 747 ft | 9 kts | 197° |
| 2026-04-25 22:51 | -10.29257 | -48.36042 | 749 ft | 12 kts | 36° |
| 2026-04-25 22:51 | -10.29164 | -48.35981 | 750 ft | 19 kts | 33° |
| 2026-04-25 22:51 | -10.29115 | -48.35948 | 748 ft | 0 kts | 33° |
| 2026-04-25 22:53 | -10.29039 | -48.35901 | 749 ft | 23 kts | 12° |
| 2026-04-25 22:54 | -10.28966 | -48.35982 | 746 ft | 28 kts | 303° |
| 2026-04-25 22:54 | -10.28802 | -48.36247 | 742 ft | 58 kts | 301° |
| 2026-04-25 22:54 | -10.28583 | -48.36602 | 734 ft | 34 kts | 305° |
| 2026-04-25 22:54 | -10.28553 | -48.36620 | 733 ft | 0 kts | 118° |
| 2026-04-25 22:55 | -10.28637 | -48.36484 | 738 ft | 59 kts | 124° |
| 2026-04-25 22:55 | -10.28993 | -48.35950 | 747 ft | 118 kts | 124° |
| 2026-04-25 22:55 | -10.29516 | -48.35141 | 876 ft | 153 kts | 122° |
| 2026-04-25 22:56 | -10.30151 | -48.34181 | 1181 ft | 168 kts | 124° |
| 2026-04-25 22:56 | -10.30794 | -48.33208 | 1783 ft | 163 kts | 125° |
| 2026-04-25 22:56 | -10.31419 | -48.32257 | 2386 ft | 162 kts | 123° |
| 2026-04-25 22:56 | -10.32042 | -48.31301 | 2956 ft | 163 kts | 123° |
| 2026-04-25 22:57 | -10.32672 | -48.30339 | 3509 ft | 164 kts | 122° |
| 2026-04-25 22:57 | -10.33306 | -48.29375 | 4039 ft | 165 kts | 123° |
| 2026-04-25 22:57 | -10.33944 | -48.28403 | 4572 ft | 166 kts | 122° |
| 2026-04-25 22:57 | -10.34560 | -48.27411 | 5164 ft | 165 kts | 112° |
| 2026-04-25 22:58 | -10.34586 | -48.26282 | 5774 ft | 166 kts | 70° |
| 2026-04-25 22:58 | -10.33814 | -48.25405 | 6359 ft | 174 kts | 28° |
| 2026-04-25 22:58 | -10.32596 | -48.25247 | 6882 ft | 183 kts | 359° |
| 2026-04-25 22:58 | -10.31315 | -48.25377 | 7297 ft | 186 kts | 358° |
| 2026-04-25 22:59 | -10.30021 | -48.25505 | 7731 ft | 188 kts | 359° |
| 2026-04-25 22:59 | -10.28713 | -48.25627 | 8192 ft | 189 kts | 359° |
| 2026-04-25 22:59 | -10.27397 | -48.25745 | 8646 ft | 190 kts | 359° |
| 2026-04-25 22:59 | -10.26074 | -48.25862 | 9099 ft | 192 kts | 359° |
| 2026-04-25 23:00 | -10.24741 | -48.25981 | 9567 ft | 193 kts | 359° |
| 2026-04-25 23:00 | -10.23408 | -48.26101 | 9972 ft | 195 kts | 359° |
| 2026-04-25 23:00 | -10.22096 | -48.26219 | 10632 ft | 180 kts | 359° |
| 2026-04-25 23:00 | -10.20880 | -48.26333 | 11231 ft | 174 kts | 359° |
| 2026-04-25 23:01 | -10.19660 | -48.26438 | 11723 ft | 177 kts | 359° |
| 2026-04-25 23:01 | -10.18424 | -48.26542 | 12197 ft | 179 kts | 358° |
| 2026-04-25 23:01 | -10.17180 | -48.26655 | 12645 ft | 180 kts | 358° |
| 2026-04-25 23:01 | -10.15924 | -48.26766 | 13093 ft | 182 kts | 357° |
| 2026-04-25 23:02 | -10.14659 | -48.26879 | 13548 ft | 183 kts | 357° |
| 2026-04-25 23:02 | -10.13383 | -48.26993 | 13960 ft | 185 kts | 357° |
| 2026-04-25 23:02 | -10.12095 | -48.27108 | 14353 ft | 186 kts | 357° |
| 2026-04-25 23:02 | -10.10800 | -48.27223 | 14743 ft | 187 kts | 357° |
| 2026-04-25 23:03 | -10.09495 | -48.27339 | 15126 ft | 189 kts | 356° |
| 2026-04-25 23:03 | -10.08220 | -48.27657 | 15467 ft | 190 kts | 334° |
| 2026-04-25 23:03 | -10.07170 | -48.28449 | 15834 ft | 192 kts | 315° |
| 2026-04-25 23:03 | -10.06217 | -48.29414 | 16185 ft | 194 kts | 315° |
| 2026-04-25 23:04 | -10.05239 | -48.30362 | 16568 ft | 195 kts | 316° |
| 2026-04-25 23:04 | -10.04246 | -48.31306 | 16957 ft | 196 kts | 316° |
| 2026-04-25 23:04 | -10.03249 | -48.32257 | 17331 ft | 198 kts | 316° |
| 2026-04-25 23:04 | -10.02243 | -48.33216 | 17705 ft | 199 kts | 316° |
| 2026-04-25 23:05 | -10.01233 | -48.34178 | 18079 ft | 200 kts | 316° |
| 2026-04-25 23:05 | -10.00217 | -48.35146 | 18419 ft | 201 kts | 316° |
| 2026-04-25 23:05 | -9.99195 | -48.36120 | 18732 ft | 202 kts | 317° |
| 2026-04-25 23:05 | -9.98167 | -48.37099 | 19041 ft | 203 kts | 317° |
| 2026-04-25 23:06 | -9.97131 | -48.38085 | 19349 ft | 204 kts | 318° |
| 2026-04-25 23:06 | -9.96093 | -48.39074 | 19654 ft | 206 kts | 318° |
| 2026-04-25 23:06 | -9.95048 | -48.40070 | 19956 ft | 207 kts | 319° |
| 2026-04-25 23:06 | -9.94021 | -48.41051 | 20440 ft | 196 kts | 319° |
| 2026-04-25 23:07 | -9.93031 | -48.41995 | 20761 ft | 196 kts | 320° |
| 2026-04-25 23:07 | -9.92034 | -48.42943 | 21054 ft | 197 kts | 320° |
| 2026-04-25 23:07 | -9.91030 | -48.43899 | 21348 ft | 198 kts | 321° |
| 2026-04-25 23:07 | -9.90023 | -48.44859 | 21638 ft | 199 kts | 321° |
| 2026-04-25 23:08 | -9.89023 | -48.45810 | 21921 ft | 200 kts | 321° |
| 2026-04-25 23:08 | -9.88008 | -48.46778 | 22211 ft | 201 kts | 322° |
| 2026-04-25 23:08 | -9.86986 | -48.47749 | 22492 ft | 202 kts | 322° |
| 2026-04-25 23:08 | -9.85960 | -48.48728 | 22766 ft | 203 kts | 322° |
| 2026-04-25 23:09 | -9.84929 | -48.49709 | 23043 ft | 204 kts | 323° |
| 2026-04-25 23:09 | -9.83892 | -48.50696 | 23318 ft | 205 kts | 323° |
| 2026-04-25 23:09 | -9.82852 | -48.51685 | 23571 ft | 206 kts | 323° |
| 2026-04-25 23:09 | -9.81808 | -48.52680 | 23790 ft | 206 kts | 323° |
| 2026-04-25 23:10 | -9.80760 | -48.53678 | 24006 ft | 207 kts | 323° |
| 2026-04-25 23:10 | -9.79708 | -48.54679 | 24223 ft | 208 kts | 323° |
| 2026-04-25 23:10 | -9.78650 | -48.55686 | 24439 ft | 208 kts | 323° |
| 2026-04-25 23:10 | -9.77591 | -48.56694 | 24655 ft | 209 kts | 323° |
| 2026-04-25 23:11 | -9.76527 | -48.57706 | 24872 ft | 210 kts | 323° |
| 2026-04-25 23:11 | -9.75460 | -48.58721 | 25084 ft | 211 kts | 322° |
| 2026-04-25 23:11 | -9.74387 | -48.59742 | 25289 ft | 211 kts | 322° |
| 2026-04-25 23:11 | -9.73313 | -48.60763 | 25496 ft | 212 kts | 322° |
| 2026-04-25 23:12 | -9.72233 | -48.61791 | 25702 ft | 214 kts | 322° |
| 2026-04-25 23:12 | -9.71147 | -48.62822 | 25975 ft | 214 kts | 322° |
| 2026-04-25 23:12 | -9.70059 | -48.63858 | 26231 ft | 215 kts | 322° |
| 2026-04-25 23:12 | -9.68978 | -48.64886 | 26483 ft | 216 kts | 322° |
| 2026-04-25 23:13 | -9.67960 | -48.66022 | 26735 ft | 220 kts | 312° |
| 2026-04-25 23:13 | -9.67026 | -48.67258 | 26981 ft | 221 kts | 312° |
| 2026-04-25 23:13 | -9.66079 | -48.68493 | 27230 ft | 222 kts | 313° |
| 2026-04-25 23:13 | -9.65122 | -48.69726 | 27480 ft | 223 kts | 312° |
| 2026-04-25 23:14 | -9.64162 | -48.70965 | 27724 ft | 224 kts | 312° |
| 2026-04-25 23:14 | -9.63199 | -48.72208 | 27968 ft | 225 kts | 312° |
| 2026-04-25 23:14 | -9.62203 | -48.73492 | 27992 ft | 238 kts | 312° |
| 2026-04-25 23:14 | -9.61153 | -48.74845 | 28002 ft | 250 kts | 312° |
| 2026-04-25 23:15 | -9.60057 | -48.76260 | 28011 ft | 261 kts | 311° |
| 2026-04-25 23:15 | -9.58931 | -48.77716 | 28016 ft | 270 kts | 311° |
| 2026-04-25 23:15 | -9.57753 | -48.79237 | 28010 ft | 278 kts | 311° |
| 2026-04-25 23:15 | -9.56539 | -48.80803 | 28006 ft | 286 kts | 311° |
| 2026-04-25 23:16 | -9.55300 | -48.82404 | 28015 ft | 292 kts | 311° |
| 2026-04-25 23:16 | -9.54034 | -48.84038 | 28005 ft | 297 kts | 311° |
| 2026-04-25 23:16 | -9.51445 | -48.87379 | 28009 ft | 305 kts | 311° |
| 2026-04-25 23:17 | -9.48797 | -48.90794 | 28006 ft | 311 kts | 311° |
| 2026-04-25 23:17 | -9.46108 | -48.94262 | 28006 ft | 315 kts | 311° |
| 2026-04-25 23:18 | -9.43389 | -48.97767 | 28007 ft | 318 kts | 311° |
| 2026-04-25 23:18 | -9.42022 | -48.99530 | 28000 ft | 319 kts | 311° |
| 2026-04-25 23:18 | -9.40668 | -49.01276 | 28010 ft | 319 kts | 311° |
| 2026-04-25 23:19 | -9.37914 | -49.04822 | 28002 ft | 321 kts | 311° |
| 2026-04-25 23:19 | -9.35155 | -49.08376 | 28003 ft | 321 kts | 311° |
| 2026-04-25 23:20 | -9.32396 | -49.11930 | 27999 ft | 320 kts | 312° |
| 2026-04-25 23:20 | -9.29651 | -49.15464 | 28003 ft | 319 kts | 312° |
| 2026-04-25 23:21 | -9.26906 | -49.18995 | 28008 ft | 318 kts | 312° |
| 2026-04-25 23:21 | -9.24185 | -49.22498 | 27999 ft | 318 kts | 312° |
| 2026-04-25 23:22 | -9.22816 | -49.24258 | 28000 ft | 318 kts | 312° |
| 2026-04-25 23:22 | -9.21447 | -49.26018 | 27999 ft | 318 kts | 312° |
| 2026-04-25 23:22 | -9.20083 | -49.27774 | 28000 ft | 317 kts | 312° |
| 2026-04-25 23:23 | -9.17353 | -49.31283 | 28003 ft | 317 kts | 312° |
| 2026-04-25 23:23 | -9.14626 | -49.34787 | 28011 ft | 317 kts | 312° |
| 2026-04-25 23:24 | -9.11900 | -49.38291 | 28012 ft | 316 kts | 312° |
| 2026-04-25 23:24 | -9.09177 | -49.41789 | 28004 ft | 316 kts | 312° |
| 2026-04-25 23:25 | -9.06453 | -49.45288 | 28007 ft | 316 kts | 312° |
| 2026-04-25 23:25 | -9.03731 | -49.48782 | 28006 ft | 316 kts | 312° |
| 2026-04-25 23:26 | -9.01009 | -49.52276 | 28004 ft | 316 kts | 312° |
| 2026-04-25 23:26 | -8.98307 | -49.55744 | 28005 ft | 316 kts | 312° |
| 2026-04-25 23:27 | -8.95585 | -49.59236 | 28006 ft | 316 kts | 312° |
| 2026-04-25 23:27 | -8.92866 | -49.62723 | 28007 ft | 316 kts | 311° |
| 2026-04-25 23:28 | -8.90142 | -49.66215 | 28005 ft | 316 kts | 311° |
| 2026-04-25 23:28 | -8.87420 | -49.69705 | 28007 ft | 316 kts | 311° |
| 2026-04-25 23:29 | -8.84696 | -49.73195 | 28006 ft | 316 kts | 311° |
| 2026-04-25 23:29 | -8.81989 | -49.76664 | 28010 ft | 316 kts | 311° |
| 2026-04-25 23:30 | -8.79261 | -49.80158 | 28009 ft | 316 kts | 311° |
| 2026-04-25 23:30 | -8.76534 | -49.83651 | 28011 ft | 316 kts | 311° |
| 2026-04-25 23:31 | -8.73807 | -49.87140 | 28009 ft | 316 kts | 311° |
| 2026-04-25 23:31 | -8.71076 | -49.90636 | 28010 ft | 317 kts | 311° |
| 2026-04-25 23:32 | -8.68340 | -49.94138 | 28008 ft | 318 kts | 311° |
| 2026-04-25 23:32 | -8.65612 | -49.97627 | 28010 ft | 319 kts | 311° |
| 2026-04-25 23:33 | -8.62861 | -50.01145 | 28011 ft | 319 kts | 311° |
| 2026-04-25 23:33 | -8.60103 | -50.04670 | 28010 ft | 320 kts | 311° |
| 2026-04-25 23:34 | -8.57339 | -50.08203 | 28014 ft | 320 kts | 310° |
| 2026-04-25 23:34 | -8.54571 | -50.11740 | 28012 ft | 321 kts | 310° |
| 2026-04-25 23:35 | -8.51802 | -50.15277 | 28013 ft | 321 kts | 310° |
| 2026-04-25 23:35 | -8.49031 | -50.18817 | 28011 ft | 321 kts | 310° |
| 2026-04-25 23:36 | -8.46725 | -50.21761 | 28012 ft | 321 kts | 310° |
| 2026-04-25 23:36 | -8.43951 | -50.25302 | 28014 ft | 322 kts | 311° |
| 2026-04-25 23:37 | -8.41172 | -50.28850 | 28013 ft | 322 kts | 311° |
| 2026-04-25 23:37 | -8.38393 | -50.32394 | 28016 ft | 322 kts | 311° |
| 2026-04-25 23:38 | -8.35615 | -50.35938 | 28015 ft | 322 kts | 311° |
| 2026-04-25 23:38 | -8.32851 | -50.39463 | 28015 ft | 322 kts | 311° |
| 2026-04-25 23:39 | -8.30070 | -50.43008 | 28018 ft | 322 kts | 311° |
| 2026-04-25 23:39 | -8.27285 | -50.46558 | 28017 ft | 322 kts | 311° |
| 2026-04-25 23:40 | -8.24497 | -50.50110 | 28020 ft | 323 kts | 311° |
| 2026-04-25 23:40 | -8.21708 | -50.53663 | 28020 ft | 323 kts | 311° |
| 2026-04-25 23:41 | -8.18914 | -50.57222 | 28019 ft | 323 kts | 311° |
| 2026-04-25 23:41 | -8.16118 | -50.60781 | 28023 ft | 323 kts | 311° |
| 2026-04-25 23:42 | -8.13341 | -50.64317 | 28024 ft | 324 kts | 311° |
| 2026-04-25 23:42 | -8.10540 | -50.67881 | 28018 ft | 324 kts | 311° |
| 2026-04-25 23:43 | -8.07740 | -50.71446 | 28025 ft | 324 kts | 311° |
| 2026-04-25 23:43 | -8.04937 | -50.75010 | 28023 ft | 324 kts | 311° |
| 2026-04-25 23:44 | -8.02133 | -50.78576 | 28023 ft | 324 kts | 311° |
| 2026-04-25 23:44 | -7.99327 | -50.82143 | 28023 ft | 325 kts | 311° |
| 2026-04-25 23:45 | -7.96534 | -50.85694 | 28026 ft | 325 kts | 310° |
| 2026-04-25 23:45 | -7.93705 | -50.89288 | 28024 ft | 325 kts | 310° |
| 2026-04-25 23:46 | -7.90912 | -50.92838 | 28027 ft | 325 kts | 310° |
| 2026-04-25 23:46 | -7.88100 | -50.96408 | 28022 ft | 325 kts | 310° |
| 2026-04-25 23:47 | -7.85281 | -50.99988 | 28022 ft | 325 kts | 310° |
| 2026-04-25 23:47 | -7.82458 | -51.03572 | 28021 ft | 326 kts | 310° |
| 2026-04-25 23:48 | -7.79641 | -51.07148 | 28024 ft | 326 kts | 310° |
| 2026-04-25 23:48 | -7.76837 | -51.10705 | 28024 ft | 326 kts | 310° |
| 2026-04-25 23:49 | -7.74018 | -51.14282 | 28026 ft | 326 kts | 310° |
| 2026-04-25 23:49 | -7.71197 | -51.17860 | 28024 ft | 325 kts | 310° |
| 2026-04-25 23:50 | -7.68375 | -51.21438 | 28023 ft | 325 kts | 310° |
| 2026-04-25 23:50 | -7.65577 | -51.24985 | 28023 ft | 325 kts | 310° |
| 2026-04-25 23:51 | -7.62761 | -51.28554 | 28023 ft | 325 kts | 310° |
| 2026-04-25 23:51 | -7.59725 | -51.31920 | 28026 ft | 324 kts | 315° |
| 2026-04-25 23:52 | -7.56666 | -51.35253 | 28022 ft | 324 kts | 314° |
| 2026-04-25 23:52 | -7.53628 | -51.38563 | 28022 ft | 324 kts | 314° |
| 2026-04-25 23:53 | -7.50565 | -51.41896 | 28021 ft | 323 kts | 314° |
| 2026-04-25 23:53 | -7.47510 | -51.45224 | 28022 ft | 323 kts | 314° |
| 2026-04-25 23:54 | -7.44455 | -51.48548 | 28023 ft | 323 kts | 314° |
| 2026-04-25 23:54 | -7.41397 | -51.51875 | 28021 ft | 323 kts | 314° |
| 2026-04-25 23:55 | -7.38337 | -51.55205 | 28021 ft | 324 kts | 314° |
| 2026-04-25 23:55 | -7.35280 | -51.58529 | 28022 ft | 323 kts | 314° |
| 2026-04-25 23:56 | -7.32242 | -51.61833 | 28023 ft | 323 kts | 314° |
| 2026-04-25 23:56 | -7.29181 | -51.65161 | 28022 ft | 323 kts | 314° |
| 2026-04-25 23:57 | -7.26126 | -51.68482 | 28024 ft | 323 kts | 314° |
| 2026-04-25 23:57 | -7.23068 | -51.71805 | 28022 ft | 323 kts | 314° |
| 2026-04-25 23:58 | -7.20009 | -51.75128 | 28019 ft | 323 kts | 314° |
| 2026-04-25 23:58 | -7.16949 | -51.78452 | 28021 ft | 323 kts | 314° |
| 2026-04-25 23:59 | -7.13889 | -51.81775 | 28019 ft | 324 kts | 314° |
| 2026-04-25 23:59 | -7.10827 | -51.85100 | 28018 ft | 324 kts | 314° |
| 2026-04-26 00:00 | -7.07761 | -51.88429 | 28017 ft | 324 kts | 314° |
| 2026-04-26 00:00 | -7.04690 | -51.91761 | 28020 ft | 324 kts | 314° |
| 2026-04-26 00:01 | -7.01640 | -51.95071 | 28015 ft | 325 kts | 314° |
| 2026-04-26 00:01 | -6.98565 | -51.98407 | 28015 ft | 325 kts | 315° |
| 2026-04-26 00:02 | -6.95485 | -52.01748 | 28019 ft | 326 kts | 315° |
| 2026-04-26 00:02 | -6.92402 | -52.05091 | 28018 ft | 326 kts | 315° |
| 2026-04-26 00:03 | -6.89316 | -52.08436 | 28017 ft | 326 kts | 315° |
| 2026-04-26 00:03 | -6.86231 | -52.11782 | 28019 ft | 326 kts | 315° |
| 2026-04-26 00:04 | -6.83163 | -52.15107 | 28023 ft | 326 kts | 315° |
| 2026-04-26 00:04 | -6.80076 | -52.18451 | 28021 ft | 326 kts | 315° |
| 2026-04-26 00:05 | -6.76991 | -52.21792 | 28019 ft | 326 kts | 315° |
| 2026-04-26 00:05 | -6.73908 | -52.25133 | 28015 ft | 325 kts | 315° |
| 2026-04-26 00:06 | -6.70826 | -52.28469 | 28021 ft | 325 kts | 315° |
| 2026-04-26 00:06 | -6.67768 | -52.31780 | 28021 ft | 325 kts | 315° |
| 2026-04-26 00:07 | -6.64695 | -52.35107 | 28018 ft | 324 kts | 315° |
| 2026-04-26 00:07 | -6.61625 | -52.38429 | 28018 ft | 324 kts | 315° |
| 2026-04-26 00:08 | -6.58555 | -52.41751 | 28019 ft | 324 kts | 315° |
| 2026-04-26 00:08 | -6.55486 | -52.45071 | 28020 ft | 324 kts | 315° |
| 2026-04-26 00:09 | -6.52417 | -52.48391 | 28019 ft | 324 kts | 315° |
| 2026-04-26 00:09 | -6.49372 | -52.51683 | 28018 ft | 323 kts | 315° |
| 2026-04-26 00:10 | -6.46309 | -52.54995 | 28016 ft | 323 kts | 315° |
| 2026-04-26 00:10 | -6.43248 | -52.58304 | 28016 ft | 323 kts | 315° |
| 2026-04-26 00:11 | -6.40190 | -52.61610 | 28016 ft | 323 kts | 315° |
| 2026-04-26 00:11 | -6.37131 | -52.64915 | 28012 ft | 323 kts | 315° |
| 2026-04-26 00:12 | -6.34032 | -52.68186 | 28016 ft | 321 kts | 321° |
| 2026-04-26 00:12 | -6.32199 | -52.69444 | 28022 ft | 318 kts | 335° |
| 2026-04-26 00:12 | -6.30186 | -52.70358 | 28015 ft | 317 kts | 339° |
| 2026-04-26 00:13 | -6.26152 | -52.72174 | 28018 ft | 318 kts | 337° |
| 2026-04-26 00:13 | -6.22175 | -52.74036 | 28019 ft | 317 kts | 338° |
| 2026-04-26 00:14 | -6.18167 | -52.75882 | 28018 ft | 317 kts | 337° |
| 2026-04-26 00:14 | -6.14161 | -52.77739 | 28018 ft | 317 kts | 338° |
| 2026-04-26 00:15 | -6.10154 | -52.79592 | 28018 ft | 317 kts | 337° |
| 2026-04-26 00:15 | -6.06147 | -52.81446 | 28017 ft | 317 kts | 338° |
| 2026-04-26 00:16 | -6.02143 | -52.83297 | 28016 ft | 317 kts | 337° |
| 2026-04-26 00:16 | -5.98139 | -52.85148 | 28019 ft | 316 kts | 337° |
| 2026-04-26 00:17 | -5.94134 | -52.87001 | 28020 ft | 316 kts | 337° |
| 2026-04-26 00:17 | -5.90156 | -52.88838 | 28019 ft | 316 kts | 337° |
| 2026-04-26 00:18 | -5.86154 | -52.90688 | 28020 ft | 317 kts | 337° |
| 2026-04-26 00:18 | -5.82151 | -52.92538 | 28018 ft | 317 kts | 337° |
| 2026-04-26 00:19 | -5.78148 | -52.94388 | 28022 ft | 317 kts | 337° |
| 2026-04-26 00:19 | -5.74142 | -52.96239 | 28020 ft | 316 kts | 337° |
| 2026-04-26 00:20 | -5.70145 | -52.98085 | 28020 ft | 316 kts | 337° |
| 2026-04-26 00:20 | -5.66147 | -52.99931 | 28019 ft | 316 kts | 337° |
| 2026-04-26 00:21 | -5.62396 | -53.02250 | 28017 ft | 318 kts | 326° |
| 2026-04-26 00:21 | -5.58727 | -53.04672 | 28019 ft | 317 kts | 330° |
| 2026-04-26 00:22 | -5.54999 | -53.07034 | 28016 ft | 317 kts | 329° |
| 2026-04-26 00:22 | -5.51291 | -53.09427 | 28019 ft | 317 kts | 329° |
| 2026-04-26 00:23 | -5.47573 | -53.11808 | 28014 ft | 317 kts | 329° |
| 2026-04-26 00:23 | -5.43858 | -53.14193 | 28019 ft | 317 kts | 329° |
| 2026-04-26 00:24 | -5.40148 | -53.16573 | 28018 ft | 316 kts | 329° |
| 2026-04-26 00:24 | -5.37061 | -53.18553 | 28017 ft | 316 kts | 329° |
| 2026-04-26 00:25 | -5.33357 | -53.20929 | 28017 ft | 316 kts | 329° |
| 2026-04-26 00:25 | -5.29655 | -53.23302 | 28016 ft | 316 kts | 329° |
| 2026-04-26 00:26 | -5.25952 | -53.25677 | 28018 ft | 316 kts | 329° |
| 2026-04-26 00:26 | -5.22250 | -53.28050 | 28015 ft | 316 kts | 329° |
| 2026-04-26 00:27 | -5.18544 | -53.30425 | 28015 ft | 316 kts | 329° |
| 2026-04-26 00:27 | -5.14844 | -53.32797 | 28016 ft | 315 kts | 329° |
| 2026-04-26 00:28 | -5.11170 | -53.35151 | 28016 ft | 315 kts | 329° |
| 2026-04-26 00:28 | -5.07472 | -53.37520 | 28015 ft | 315 kts | 329° |
| 2026-04-26 00:28 | -5.05618 | -53.38721 | 27888 ft | 320 kts | 328° |
| 2026-04-26 00:29 | -5.03743 | -53.39929 | 27829 ft | 321 kts | 329° |
| 2026-04-26 00:29 | -5.01857 | -53.41129 | 27811 ft | 320 kts | 329° |
| 2026-04-26 00:29 | -4.99981 | -53.42326 | 27792 ft | 320 kts | 329° |
| 2026-04-26 00:29 | -4.98104 | -53.43530 | 27752 ft | 321 kts | 329° |
| 2026-04-26 00:30 | -4.96220 | -53.44738 | 27706 ft | 321 kts | 329° |
| 2026-04-26 00:30 | -4.94341 | -53.45940 | 27686 ft | 321 kts | 329° |
| 2026-04-26 00:30 | -4.92463 | -53.47143 | 27666 ft | 320 kts | 329° |
| 2026-04-26 00:30 | -4.90583 | -53.48347 | 27637 ft | 320 kts | 329° |
| 2026-04-26 00:31 | -4.88705 | -53.49549 | 27614 ft | 320 kts | 329° |
| 2026-04-26 00:31 | -4.86831 | -53.50749 | 27589 ft | 320 kts | 329° |
| 2026-04-26 00:31 | -4.84955 | -53.51950 | 27568 ft | 320 kts | 329° |
| 2026-04-26 00:31 | -4.83080 | -53.53149 | 27537 ft | 319 kts | 329° |
| 2026-04-26 00:32 | -4.81233 | -53.54333 | 27521 ft | 319 kts | 329° |
| 2026-04-26 00:32 | -4.79358 | -53.55532 | 27497 ft | 319 kts | 329° |
| 2026-04-26 00:32 | -4.75617 | -53.57926 | 27450 ft | 319 kts | 329° |
| 2026-04-26 00:33 | -4.73746 | -53.59124 | 27434 ft | 319 kts | 329° |
| 2026-04-26 00:33 | -4.71876 | -53.60320 | 27413 ft | 319 kts | 329° |
| 2026-04-26 00:33 | -4.70006 | -53.61517 | 27392 ft | 319 kts | 329° |
| 2026-04-26 00:33 | -4.68135 | -53.62714 | 27376 ft | 318 kts | 329° |
| 2026-04-26 00:34 | -4.66267 | -53.63909 | 27357 ft | 318 kts | 329° |
| 2026-04-26 00:34 | -4.64401 | -53.65102 | 27341 ft | 318 kts | 329° |
| 2026-04-26 00:34 | -4.62536 | -53.66295 | 27322 ft | 318 kts | 329° |
| 2026-04-26 00:34 | -4.60673 | -53.67487 | 27307 ft | 318 kts | 329° |
| 2026-04-26 00:35 | -4.58807 | -53.68680 | 27285 ft | 318 kts | 329° |
| 2026-04-26 00:35 | -4.56944 | -53.69872 | 27271 ft | 318 kts | 329° |
| 2026-04-26 00:35 | -4.55079 | -53.71065 | 27235 ft | 318 kts | 329° |
| 2026-04-26 00:35 | -4.53209 | -53.72260 | 27193 ft | 319 kts | 329° |
| 2026-04-26 00:36 | -4.51366 | -53.73439 | 27173 ft | 319 kts | 329° |
| 2026-04-26 00:36 | -4.49496 | -53.74634 | 27160 ft | 318 kts | 329° |
| 2026-04-26 00:36 | -4.47625 | -53.75831 | 27127 ft | 318 kts | 329° |
| 2026-04-26 00:36 | -4.45757 | -53.77025 | 27112 ft | 318 kts | 329° |
| 2026-04-26 00:37 | -4.43889 | -53.78219 | 27093 ft | 318 kts | 329° |
| 2026-04-26 00:37 | -4.42023 | -53.79412 | 27073 ft | 318 kts | 329° |
| 2026-04-26 00:37 | -4.40153 | -53.80607 | 27049 ft | 318 kts | 329° |
| 2026-04-26 00:37 | -4.38285 | -53.81801 | 27033 ft | 318 kts | 329° |
| 2026-04-26 00:38 | -4.36419 | -53.82994 | 27018 ft | 318 kts | 329° |
| 2026-04-26 00:38 | -4.34551 | -53.84188 | 27005 ft | 318 kts | 329° |
| 2026-04-26 00:38 | -4.32679 | -53.85384 | 26979 ft | 318 kts | 329° |
| 2026-04-26 00:38 | -4.30838 | -53.86560 | 26967 ft | 318 kts | 329° |
| 2026-04-26 00:39 | -4.28966 | -53.87756 | 26942 ft | 319 kts | 329° |
| 2026-04-26 00:39 | -4.27096 | -53.88951 | 26927 ft | 319 kts | 329° |
| 2026-04-26 00:39 | -4.25225 | -53.90146 | 26915 ft | 319 kts | 329° |
| 2026-04-26 00:39 | -4.23356 | -53.91340 | 26898 ft | 319 kts | 329° |
| 2026-04-26 00:40 | -4.21485 | -53.92536 | 26885 ft | 319 kts | 329° |
| 2026-04-26 00:40 | -4.19611 | -53.93733 | 26871 ft | 319 kts | 329° |
| 2026-04-26 00:40 | -4.17738 | -53.94929 | 26857 ft | 319 kts | 329° |
| 2026-04-26 00:40 | -4.15863 | -53.96127 | 26845 ft | 319 kts | 329° |
| 2026-04-26 00:41 | -4.13989 | -53.97323 | 26835 ft | 319 kts | 329° |
| 2026-04-26 00:41 | -4.12115 | -53.98520 | 26821 ft | 319 kts | 329° |
| 2026-04-26 00:41 | -4.10262 | -53.99703 | 26804 ft | 319 kts | 329° |
| 2026-04-26 00:41 | -4.08387 | -54.00901 | 26797 ft | 319 kts | 329° |
| 2026-04-26 00:42 | -4.06510 | -54.02099 | 26793 ft | 319 kts | 329° |
| 2026-04-26 00:42 | -4.04638 | -54.03294 | 26781 ft | 319 kts | 329° |
| 2026-04-26 00:42 | -4.02765 | -54.04490 | 26765 ft | 319 kts | 329° |
| 2026-04-26 00:42 | -4.00889 | -54.05688 | 26751 ft | 319 kts | 329° |
| 2026-04-26 00:43 | -3.99010 | -54.06887 | 26707 ft | 320 kts | 329° |
| 2026-04-26 00:43 | -3.97129 | -54.08088 | 26690 ft | 321 kts | 329° |
| 2026-04-26 00:43 | -3.95248 | -54.09289 | 26682 ft | 320 kts | 330° |
| 2026-04-26 00:43 | -3.93370 | -54.10487 | 26672 ft | 320 kts | 329° |
| 2026-04-26 00:44 | -3.91490 | -54.11688 | 26656 ft | 321 kts | 329° |
| 2026-04-26 00:44 | -3.89634 | -54.12871 | 26635 ft | 320 kts | 330° |
| 2026-04-26 00:44 | -3.87756 | -54.14070 | 26617 ft | 320 kts | 329° |
| 2026-04-26 00:44 | -3.85875 | -54.15271 | 26597 ft | 321 kts | 329° |
| 2026-04-26 00:45 | -3.83994 | -54.16470 | 26591 ft | 320 kts | 330° |
| 2026-04-26 00:45 | -3.82112 | -54.17672 | 26498 ft | 323 kts | 330° |
| 2026-04-26 00:45 | -3.80176 | -54.18905 | 26144 ft | 334 kts | 329° |
| 2026-04-26 00:45 | -3.78192 | -54.20169 | 25801 ft | 343 kts | 329° |
| 2026-04-26 00:46 | -3.76159 | -54.21466 | 25463 ft | 348 kts | 329° |
| 2026-04-26 00:46 | -3.74116 | -54.22771 | 25131 ft | 349 kts | 329° |
| 2026-04-26 00:46 | -3.72070 | -54.24076 | 24797 ft | 349 kts | 329° |
| 2026-04-26 00:46 | -3.70024 | -54.25380 | 24469 ft | 349 kts | 329° |
| 2026-04-26 00:47 | -3.67978 | -54.26684 | 24145 ft | 349 kts | 329° |
| 2026-04-26 00:47 | -3.65928 | -54.27992 | 23827 ft | 348 kts | 329° |
| 2026-04-26 00:47 | -3.63885 | -54.29296 | 23496 ft | 348 kts | 329° |
| 2026-04-26 00:47 | -3.61865 | -54.30583 | 23114 ft | 349 kts | 329° |
| 2026-04-26 00:48 | -3.59816 | -54.31889 | 22739 ft | 349 kts | 329° |
| 2026-04-26 00:48 | -3.57771 | -54.33192 | 22365 ft | 349 kts | 329° |
| 2026-04-26 00:48 | -3.55726 | -54.34496 | 21992 ft | 349 kts | 329° |
| 2026-04-26 00:48 | -3.53678 | -54.35802 | 21627 ft | 349 kts | 329° |
| 2026-04-26 00:49 | -3.51631 | -54.37105 | 21261 ft | 349 kts | 329° |
| 2026-04-26 00:49 | -3.49586 | -54.38409 | 20903 ft | 348 kts | 329° |
| 2026-04-26 00:49 | -3.47540 | -54.39714 | 20553 ft | 348 kts | 329° |
| 2026-04-26 00:49 | -3.45494 | -54.41016 | 20203 ft | 348 kts | 329° |
| 2026-04-26 00:50 | -3.43448 | -54.42319 | 19827 ft | 348 kts | 329° |
| 2026-04-26 00:50 | -3.41406 | -54.43623 | 19440 ft | 348 kts | 329° |
| 2026-04-26 00:50 | -3.39367 | -54.44928 | 19147 ft | 345 kts | 329° |
| 2026-04-26 00:50 | -3.37335 | -54.46221 | 18764 ft | 346 kts | 330° |
| 2026-04-26 00:51 | -3.35307 | -54.47507 | 18464 ft | 344 kts | 329° |
| 2026-04-26 00:51 | -3.33294 | -54.48794 | 18165 ft | 342 kts | 329° |
| 2026-04-26 00:51 | -3.31294 | -54.50070 | 17835 ft | 340 kts | 329° |
| 2026-04-26 00:51 | -3.29297 | -54.51340 | 17513 ft | 339 kts | 330° |
| 2026-04-26 00:52 | -3.27315 | -54.52603 | 17211 ft | 338 kts | 329° |
| 2026-04-26 00:52 | -3.25339 | -54.53863 | 16913 ft | 336 kts | 329° |
| 2026-04-26 00:52 | -3.23369 | -54.55118 | 16636 ft | 335 kts | 329° |
| 2026-04-26 00:52 | -3.21434 | -54.56351 | 16367 ft | 333 kts | 329° |
| 2026-04-26 00:53 | -3.19475 | -54.57598 | 16099 ft | 332 kts | 329° |
| 2026-04-26 00:53 | -3.17526 | -54.58839 | 15849 ft | 331 kts | 329° |
| 2026-04-26 00:53 | -3.15583 | -54.60079 | 15597 ft | 330 kts | 329° |
| 2026-04-26 00:53 | -3.13649 | -54.61309 | 15367 ft | 329 kts | 329° |
| 2026-04-26 00:54 | -3.11719 | -54.62538 | 15137 ft | 328 kts | 329° |
| 2026-04-26 00:54 | -3.09800 | -54.63762 | 14915 ft | 327 kts | 329° |
| 2026-04-26 00:54 | -3.07881 | -54.64983 | 14703 ft | 326 kts | 330° |
| 2026-04-26 00:54 | -3.05967 | -54.66202 | 14507 ft | 325 kts | 329° |
| 2026-04-26 00:55 | -3.04061 | -54.67416 | 14304 ft | 325 kts | 329° |
| 2026-04-26 00:55 | -3.02156 | -54.68627 | 14118 ft | 324 kts | 329° |
| 2026-04-26 00:55 | -3.00255 | -54.69840 | 13932 ft | 323 kts | 329° |
| 2026-04-26 00:55 | -2.98386 | -54.71028 | 13748 ft | 322 kts | 329° |
| 2026-04-26 00:56 | -2.96496 | -54.72232 | 13558 ft | 322 kts | 329° |
| 2026-04-26 00:56 | -2.94621 | -54.73427 | 13124 ft | 319 kts | 329° |
| 2026-04-26 00:56 | -2.92749 | -54.74617 | 12699 ft | 317 kts | 329° |
| 2026-04-26 00:56 | -2.90895 | -54.75799 | 12296 ft | 315 kts | 329° |
| 2026-04-26 00:57 | -2.89047 | -54.76978 | 11905 ft | 313 kts | 329° |
| 2026-04-26 00:57 | -2.87211 | -54.78143 | 11514 ft | 312 kts | 329° |
| 2026-04-26 00:57 | -2.85382 | -54.79307 | 11137 ft | 310 kts | 329° |
| 2026-04-26 00:57 | -2.83561 | -54.80467 | 10770 ft | 309 kts | 329° |
| 2026-04-26 00:58 | -2.81755 | -54.81618 | 10424 ft | 307 kts | 329° |
| 2026-04-26 00:58 | -2.79983 | -54.82745 | 10024 ft | 302 kts | 329° |
| 2026-04-26 00:58 | -2.78206 | -54.83875 | 9273 ft | 302 kts | 329° |
| 2026-04-26 00:58 | -2.76445 | -54.84997 | 8594 ft | 298 kts | 329° |
| 2026-04-26 00:59 | -2.74703 | -54.86106 | 7905 ft | 295 kts | 329° |
| 2026-04-26 00:59 | -2.72979 | -54.87204 | 7241 ft | 292 kts | 329° |
| 2026-04-26 00:59 | -2.71275 | -54.88292 | 6600 ft | 289 kts | 329° |
| 2026-04-26 00:59 | -2.69587 | -54.89356 | 5950 ft | 285 kts | 329° |
| 2026-04-26 01:00 | -2.67997 | -54.90370 | 5323 ft | 283 kts | 329° |
| 2026-04-26 01:00 | -2.66338 | -54.91430 | 4750 ft | 283 kts | 329° |
| 2026-04-26 01:00 | -2.64680 | -54.92480 | 4437 ft | 281 kts | 330° |
| 2026-04-26 01:00 | -2.63032 | -54.93526 | 4039 ft | 280 kts | 328° |
| 2026-04-26 01:01 | -2.61401 | -54.94588 | 3713 ft | 278 kts | 329° |
| 2026-04-26 01:01 | -2.59762 | -54.95614 | 3268 ft | 277 kts | 330° |
| 2026-04-26 01:01 | -2.58127 | -54.96646 | 3016 ft | 275 kts | 329° |
| 2026-04-26 01:01 | -2.56537 | -54.97639 | 2996 ft | 262 kts | 335° |
| 2026-04-26 01:02 | -2.54855 | -54.98166 | 2997 ft | 248 kts | 352° |
| 2026-04-26 01:02 | -2.53175 | -54.98267 | 2992 ft | 237 kts | 6° |
| 2026-04-26 01:02 | -2.51573 | -54.98001 | 2967 ft | 231 kts | 13° |
| 2026-04-26 01:02 | -2.49969 | -54.97706 | 2711 ft | 237 kts | 12° |
| 2026-04-26 01:03 | -2.48358 | -54.97405 | 2481 ft | 240 kts | 15° |
| 2026-04-26 01:03 | -2.46832 | -54.96749 | 2239 ft | 241 kts | 36° |
| 2026-04-26 01:03 | -2.45595 | -54.95632 | 2010 ft | 239 kts | 53° |
| 2026-04-26 01:03 | -2.44791 | -54.94227 | 1999 ft | 229 kts | 69° |
| 2026-04-26 01:04 | -2.44407 | -54.92712 | 1995 ft | 222 kts | 79° |
| 2026-04-26 01:04 | -2.44170 | -54.91209 | 1988 ft | 216 kts | 81° |
| 2026-04-26 01:04 | -2.43934 | -54.89741 | 1997 ft | 211 kts | 79° |
| 2026-04-26 01:04 | -2.43693 | -54.88296 | 1759 ft | 209 kts | 81° |
| 2026-04-26 01:05 | -2.43471 | -54.86889 | 1471 ft | 205 kts | 80° |
| 2026-04-26 01:05 | -2.43242 | -54.85497 | 1200 ft | 202 kts | 81° |
| 2026-04-26 01:05 | -2.43026 | -54.84144 | 953 ft | 191 kts | 79° |
| 2026-04-26 01:05 | -2.42817 | -54.82880 | 707 ft | 172 kts | 81° |
| 2026-04-26 01:06 | -2.42642 | -54.81795 | 498 ft | 145 kts | 79° |
| 2026-04-26 01:06 | -2.42496 | -54.80873 | 326 ft | 123 kts | 80° |
| 2026-04-26 01:06 | -2.42364 | -54.80111 | 215 ft | 102 kts | 83° |
| 2026-04-26 01:06 | -2.42278 | -54.79498 | 204 ft | 75 kts | 81° |
| 2026-04-26 01:07 | -2.42199 | -54.79039 | 209 ft | 59 kts | 81° |
| 2026-04-26 01:07 | -2.42164 | -54.78760 | 205 ft | 20 kts | 112° |
| 2026-04-26 01:07 | -2.42275 | -54.78670 | 208 ft | 20 kts | 139° |
| 2026-04-26 01:07 | -2.42367 | -54.78596 | 202 ft | 11 kts | 185° |
| 2026-04-26 01:08 | -2.42389 | -54.78593 | 204 ft | 8 kts | 142° |
| 2026-04-26 01:08 | -2.42392 | -54.78590 | 203 ft | 0 kts | 107° |
| 2026-04-26 01:09 | -2.42393 | -54.78588 | 203 ft | 4 kts | 112° |
| 2026-04-26 01:09 | -2.42413 | -54.78557 | 202 ft | 0 kts | 128° |